Terminal Aerodrome Forecast
Issued by NWS Charleston, WV

Current Version | Previous Version | Graphics & Text | Print | Product List | Glossary On
Versions: 1 2 3 4 5 6 7 8 9 10 11 12 13 14
000
FTUS41 KRLX 250200 AAA
TAFPKB
TAF AMD
KPKB 250256Z 2503/2524 26014G31KT P6SM OVC030
     FM250500 25011G23KT P6SM OVC015
     FM251400 25011G18KT P6SM BKN025
     FM251700 25011G18KT P6SM BKN035
     FM252200 24005KT P6SM SCT050=

USA.gov is the U.S. government's official web portal to all federal, state and local government web resources and services.